sensor_id;sensor_type;location;lat;lon;timestamp;P1;durP1;ratioP1;P2;durP2;ratioP2
8526;SDS011;4301;48.362;8.478;2023-04-28T00:00:34;3.90;;;3.60;;
8526;SDS011;4301;48.362;8.478;2023-04-28T00:03:01;3.90;;;3.60;;
8526;SDS011;4301;48.362;8.478;2023-04-28T00:05:29;4.93;;;3.40;;
8526;SDS011;4301;48.362;8.478;2023-04-28T00:07:57;3.70;;;2.97;;
8526;SDS011;4301;48.362;8.478;2023-04-28T00:10:24;3.10;;;2.90;;
8526;SDS011;4301;48.362;8.478;2023-04-28T00:12:51;3.80;;;3.40;;
8526;SDS011;4301;48.362;8.478;2023-04-28T00:15:18;3.30;;;3.00;;
8526;SDS011;4301;48.362;8.478;2023-04-28T00:17:45;3.97;;;3.50;;
8526;SDS011;4301;48.362;8.478;2023-04-28T00:20:12;3.20;;;3.00;;
8526;SDS011;4301;48.362;8.478;2023-04-28T00:22:38;3.97;;;3.20;;
8526;SDS011;4301;48.362;8.478;2023-04-28T00:25:07;4.10;;;3.30;;
8526;SDS011;4301;48.362;8.478;2023-04-28T00:27:35;4.27;;;3.50;;
8526;SDS011;4301;48.362;8.478;2023-04-28T00:30:02;4.17;;;3.30;;
8526;SDS011;4301;48.362;8.478;2023-04-28T00:32:29;4.67;;;3.30;;
8526;SDS011;4301;48.362;8.478;2023-04-28T00:34:56;4.97;;;3.10;;
8526;SDS011;4301;48.362;8.478;2023-04-28T00:37:23;3.00;;;2.83;;
8526;SDS011;4301;48.362;8.478;2023-04-28T00:39:53;3.20;;;2.83;;
8526;SDS011;4301;48.362;8.478;2023-04-28T00:42:22;2.77;;;2.57;;
8526;SDS011;4301;48.362;8.478;2023-04-28T00:44:49;3.10;;;2.80;;
8526;SDS011;4301;48.362;8.478;2023-04-28T00:47:16;3.70;;;2.70;;
8526;SDS011;4301;48.362;8.478;2023-04-28T00:49:44;3.20;;;2.90;;
8526;SDS011;4301;48.362;8.478;2023-04-28T00:52:11;3.03;;;2.73;;
8526;SDS011;4301;48.362;8.478;2023-04-28T00:54:38;2.80;;;2.60;;
8526;SDS011;4301;48.362;8.478;2023-04-28T00:57:06;3.13;;;2.87;;
8526;SDS011;4301;48.362;8.478;2023-04-28T00:59:36;4.63;;;3.00;;
8526;SDS011;4301;48.362;8.478;2023-04-28T01:02:03;3.83;;;2.63;;
8526;SDS011;4301;48.362;8.478;2023-04-28T01:04:31;4.53;;;2.87;;
8526;SDS011;4301;48.362;8.478;2023-04-28T01:06:59;3.27;;;3.00;;
8526;SDS011;4301;48.362;8.478;2023-04-28T01:09:28;5.43;;;2.97;;
8526;SDS011;4301;48.362;8.478;2023-04-28T01:11:55;3.33;;;3.00;;
8526;SDS011;4301;48.362;8.478;2023-04-28T01:14:22;3.40;;;3.10;;
8526;SDS011;4301;48.362;8.478;2023-04-28T01:16:50;3.37;;;3.17;;
8526;SDS011;4301;48.362;8.478;2023-04-28T01:19:19;5.70;;;3.30;;
8526;SDS011;4301;48.362;8.478;2023-04-28T01:21:47;2.90;;;2.70;;
8526;SDS011;4301;48.362;8.478;2023-04-28T01:24:16;7.37;;;3.00;;
8526;SDS011;4301;48.362;8.478;2023-04-28T01:26:43;4.10;;;3.20;;
8526;SDS011;4301;48.362;8.478;2023-04-28T01:29:10;5.47;;;3.10;;
8526;SDS011;4301;48.362;8.478;2023-04-28T01:31:37;4.00;;;3.10;;
8526;SDS011;4301;48.362;8.478;2023-04-28T01:34:05;5.53;;;3.00;;
8526;SDS011;4301;48.362;8.478;2023-04-28T01:36:32;3.40;;;2.80;;
8526;SDS011;4301;48.362;8.478;2023-04-28T01:38:59;3.70;;;3.40;;
8526;SDS011;4301;48.362;8.478;2023-04-28T01:41:27;3.77;;;3.47;;
8526;SDS011;4301;48.362;8.478;2023-04-28T01:43:54;5.07;;;3.37;;
8526;SDS011;4301;48.362;8.478;2023-04-28T01:46:21;3.27;;;2.97;;
8526;SDS011;4301;48.362;8.478;2023-04-28T01:48:48;3.90;;;3.57;;
8526;SDS011;4301;48.362;8.478;2023-04-28T01:51:15;5.43;;;3.90;;
8526;SDS011;4301;48.362;8.478;2023-04-28T01:53:42;3.90;;;3.50;;
8526;SDS011;4301;48.362;8.478;2023-04-28T01:56:09;3.80;;;3.40;;
8526;SDS011;4301;48.362;8.478;2023-04-28T01:58:37;4.93;;;3.63;;
8526;SDS011;4301;48.362;8.478;2023-04-28T02:01:04;3.50;;;3.20;;
8526;SDS011;4301;48.362;8.478;2023-04-28T02:03:31;3.73;;;3.43;;
8526;SDS011;4301;48.362;8.478;2023-04-28T02:05:58;3.40;;;3.20;;
8526;SDS011;4301;48.362;8.478;2023-04-28T02:08:25;4.67;;;3.27;;
8526;SDS011;4301;48.362;8.478;2023-04-28T02:10:51;3.43;;;3.13;;
8526;SDS011;4301;48.362;8.478;2023-04-28T02:13:18;7.77;;;3.40;;
8526;SDS011;4301;48.362;8.478;2023-04-28T02:15:47;3.93;;;3.53;;
8526;SDS011;4301;48.362;8.478;2023-04-28T02:18:14;3.43;;;3.13;;
8526;SDS011;4301;48.362;8.478;2023-04-28T02:20:41;3.17;;;2.97;;
8526;SDS011;4301;48.362;8.478;2023-04-28T02:23:08;6.90;;;3.40;;
8526;SDS011;4301;48.362;8.478;2023-04-28T02:25:34;3.70;;;3.40;;
8526;SDS011;4301;48.362;8.478;2023-04-28T02:28:01;3.87;;;3.30;;
8526;SDS011;4301;48.362;8.478;2023-04-28T02:30:28;4.47;;;3.67;;
8526;SDS011;4301;48.362;8.478;2023-04-28T02:32:57;4.40;;;3.83;;
8526;SDS011;4301;48.362;8.478;2023-04-28T02:35:24;3.63;;;3.33;;
8526;SDS011;4301;48.362;8.478;2023-04-28T02:37:50;3.07;;;2.87;;
8526;SDS011;4301;48.362;8.478;2023-04-28T02:40:18;6.40;;;3.43;;
8526;SDS011;4301;48.362;8.478;2023-04-28T02:42:45;3.40;;;3.10;;
8526;SDS011;4301;48.362;8.478;2023-04-28T02:45:12;3.60;;;3.40;;
8526;SDS011;4301;48.362;8.478;2023-04-28T02:47:39;4.13;;;3.80;;
8526;SDS011;4301;48.362;8.478;2023-04-28T02:50:08;4.60;;;3.57;;
8526;SDS011;4301;48.362;8.478;2023-04-28T02:52:35;4.13;;;3.77;;
8526;SDS011;4301;48.362;8.478;2023-04-28T02:55:02;6.33;;;3.80;;
8526;SDS011;4301;48.362;8.478;2023-04-28T02:57:29;5.53;;;3.80;;
8526;SDS011;4301;48.362;8.478;2023-04-28T02:59:56;3.80;;;3.50;;
8526;SDS011;4301;48.362;8.478;2023-04-28T03:02:23;4.17;;;3.77;;
8526;SDS011;4301;48.362;8.478;2023-04-28T03:04:50;4.30;;;3.90;;
8526;SDS011;4301;48.362;8.478;2023-04-28T03:07:18;5.67;;;4.17;;
8526;SDS011;4301;48.362;8.478;2023-04-28T03:09:45;4.10;;;3.80;;
8526;SDS011;4301;48.362;8.478;2023-04-28T03:12:12;3.90;;;3.60;;
8526;SDS011;4301;48.362;8.478;2023-04-28T03:14:39;4.30;;;4.00;;
8526;SDS011;4301;48.362;8.478;2023-04-28T03:17:06;3.77;;;3.47;;
8526;SDS011;4301;48.362;8.478;2023-04-28T03:19:33;4.50;;;4.10;;
8526;SDS011;4301;48.362;8.478;2023-04-28T03:22:01;4.10;;;3.80;;
8526;SDS011;4301;48.362;8.478;2023-04-28T03:24:29;4.30;;;4.00;;
8526;SDS011;4301;48.362;8.478;2023-04-28T03:26:56;4.50;;;4.17;;
8526;SDS011;4301;48.362;8.478;2023-04-28T03:29:23;5.07;;;4.43;;
8526;SDS011;4301;48.362;8.478;2023-04-28T03:31:49;7.33;;;4.63;;
8526;SDS011;4301;48.362;8.478;2023-04-28T03:34:16;5.63;;;4.10;;
8526;SDS011;4301;48.362;8.478;2023-04-28T03:36:43;7.30;;;5.77;;
8526;SDS011;4301;48.362;8.478;2023-04-28T03:39:10;4.57;;;4.17;;
8526;SDS011;4301;48.362;8.478;2023-04-28T03:41:39;4.53;;;3.93;;
8526;SDS011;4301;48.362;8.478;2023-04-28T03:44:05;5.53;;;3.60;;
8526;SDS011;4301;48.362;8.478;2023-04-28T03:46:32;4.10;;;3.70;;
8526;SDS011;4301;48.362;8.478;2023-04-28T03:48:59;4.00;;;3.70;;
8526;SDS011;4301;48.362;8.478;2023-04-28T03:51:28;4.20;;;3.80;;
8526;SDS011;4301;48.362;8.478;2023-04-28T03:53:56;5.03;;;4.13;;
8526;SDS011;4301;48.362;8.478;2023-04-28T03:56:23;5.57;;;4.00;;
8526;SDS011;4301;48.362;8.478;2023-04-28T03:58:52;4.43;;;4.00;;
8526;SDS011;4301;48.362;8.478;2023-04-28T04:01:19;4.47;;;4.03;;
8526;SDS011;4301;48.362;8.478;2023-04-28T04:03:45;4.23;;;3.80;;
8526;SDS011;4301;48.362;8.478;2023-04-28T04:06:12;9.23;;;4.10;;
8526;SDS011;4301;48.362;8.478;2023-04-28T04:08:40;4.33;;;3.73;;
8526;SDS011;4301;48.362;8.478;2023-04-28T04:11:07;5.33;;;4.50;;
8526;SDS011;4301;48.362;8.478;2023-04-28T04:13:34;5.13;;;4.63;;
8526;SDS011;4301;48.362;8.478;2023-04-28T04:16:02;4.77;;;4.37;;
8526;SDS011;4301;48.362;8.478;2023-04-28T04:18:29;4.93;;;4.40;;
8526;SDS011;4301;48.362;8.478;2023-04-28T04:20:56;5.03;;;4.60;;
8526;SDS011;4301;48.362;8.478;2023-04-28T04:23:23;5.40;;;4.90;;
8526;SDS011;4301;48.362;8.478;2023-04-28T04:25:50;5.27;;;4.70;;
8526;SDS011;4301;48.362;8.478;2023-04-28T04:28:17;7.33;;;5.50;;
8526;SDS011;4301;48.362;8.478;2023-04-28T04:30:44;5.83;;;5.10;;
8526;SDS011;4301;48.362;8.478;2023-04-28T04:33:13;5.77;;;5.10;;
8526;SDS011;4301;48.362;8.478;2023-04-28T04:35:40;5.53;;;4.70;;
8526;SDS011;4301;48.362;8.478;2023-04-28T04:38:07;5.57;;;5.07;;
8526;SDS011;4301;48.362;8.478;2023-04-28T04:40:34;7.37;;;4.80;;
8526;SDS011;4301;48.362;8.478;2023-04-28T04:43:01;6.43;;;5.50;;
8526;SDS011;4301;48.362;8.478;2023-04-28T04:45:29;5.40;;;4.93;;
8526;SDS011;4301;48.362;8.478;2023-04-28T04:47:56;5.27;;;4.60;;
8526;SDS011;4301;48.362;8.478;2023-04-28T04:50:24;5.87;;;4.33;;
8526;SDS011;4301;48.362;8.478;2023-04-28T04:52:51;5.73;;;4.80;;
8526;SDS011;4301;48.362;8.478;2023-04-28T04:55:20;5.37;;;4.63;;
8526;SDS011;4301;48.362;8.478;2023-04-28T04:57:47;4.80;;;4.33;;
8526;SDS011;4301;48.362;8.478;2023-04-28T05:00:15;5.28;;;4.78;;
8526;SDS011;4301;48.362;8.478;2023-04-28T05:02:42;5.03;;;4.53;;
8526;SDS011;4301;48.362;8.478;2023-04-28T05:05:09;5.43;;;4.57;;
8526;SDS011;4301;48.362;8.478;2023-04-28T05:07:38;5.80;;;5.20;;
8526;SDS011;4301;48.362;8.478;2023-04-28T05:10:05;5.53;;;5.03;;
8526;SDS011;4301;48.362;8.478;2023-04-28T05:12:33;5.87;;;5.30;;
8526;SDS011;4301;48.362;8.478;2023-04-28T05:15:00;5.87;;;5.27;;
8526;SDS011;4301;48.362;8.478;2023-04-28T05:17:27;5.80;;;5.20;;
8526;SDS011;4301;48.362;8.478;2023-04-28T05:19:54;6.37;;;5.30;;
8526;SDS011;4301;48.362;8.478;2023-04-28T05:22:21;5.77;;;5.03;;
8526;SDS011;4301;48.362;8.478;2023-04-28T05:24:49;5.30;;;4.90;;
8526;SDS011;4301;48.362;8.478;2023-04-28T05:27:16;5.00;;;4.40;;
8526;SDS011;4301;48.362;8.478;2023-04-28T05:29:44;6.10;;;4.50;;
8526;SDS011;4301;48.362;8.478;2023-04-28T05:32:11;5.35;;;4.85;;
8526;SDS011;4301;48.362;8.478;2023-04-28T05:34:38;5.10;;;4.27;;
8526;SDS011;4301;48.362;8.478;2023-04-28T05:37:05;4.80;;;4.30;;
8526;SDS011;4301;48.362;8.478;2023-04-28T05:39:32;4.40;;;4.10;;
8526;SDS011;4301;48.362;8.478;2023-04-28T05:42:00;4.90;;;4.50;;
8526;SDS011;4301;48.362;8.478;2023-04-28T05:44:28;4.63;;;4.23;;
8526;SDS011;4301;48.362;8.478;2023-04-28T05:46:56;5.10;;;4.60;;
8526;SDS011;4301;48.362;8.478;2023-04-28T05:49:22;6.07;;;4.60;;
8526;SDS011;4301;48.362;8.478;2023-04-28T05:51:49;4.60;;;4.20;;
8526;SDS011;4301;48.362;8.478;2023-04-28T05:54:16;5.07;;;4.53;;
8526;SDS011;4301;48.362;8.478;2023-04-28T05:56:43;6.63;;;4.80;;
8526;SDS011;4301;48.362;8.478;2023-04-28T05:59:12;5.40;;;4.70;;
8526;SDS011;4301;48.362;8.478;2023-04-28T06:01:39;5.13;;;4.03;;
8526;SDS011;4301;48.362;8.478;2023-04-28T06:04:06;7.00;;;4.23;;
8526;SDS011;4301;48.362;8.478;2023-04-28T06:06:33;5.23;;;4.73;;
8526;SDS011;4301;48.362;8.478;2023-04-28T06:09:00;5.27;;;4.77;;
8526;SDS011;4301;48.362;8.478;2023-04-28T06:11:28;4.97;;;4.47;;
8526;SDS011;4301;48.362;8.478;2023-04-28T06:13:55;5.23;;;4.73;;
8526;SDS011;4301;48.362;8.478;2023-04-28T06:16:23;5.37;;;4.87;;
8526;SDS011;4301;48.362;8.478;2023-04-28T06:18:50;5.23;;;4.37;;
8526;SDS011;4301;48.362;8.478;2023-04-28T06:21:17;4.80;;;4.30;;
8526;SDS011;4301;48.362;8.478;2023-04-28T06:23:45;4.60;;;4.13;;
8526;SDS011;4301;48.362;8.478;2023-04-28T06:26:12;4.33;;;4.03;;
8526;SDS011;4301;48.362;8.478;2023-04-28T06:28:39;4.30;;;3.90;;
8526;SDS011;4301;48.362;8.478;2023-04-28T06:31:06;5.03;;;4.53;;
8526;SDS011;4301;48.362;8.478;2023-04-28T06:33:35;5.43;;;4.67;;
8526;SDS011;4301;48.362;8.478;2023-04-28T06:36:02;4.80;;;4.40;;
8526;SDS011;4301;48.362;8.478;2023-04-28T06:38:29;4.97;;;4.40;;
8526;SDS011;4301;48.362;8.478;2023-04-28T06:40:56;4.80;;;4.33;;
8526;SDS011;4301;48.362;8.478;2023-04-28T06:43:23;4.67;;;4.27;;
8526;SDS011;4301;48.362;8.478;2023-04-28T06:45:50;4.73;;;4.33;;
8526;SDS011;4301;48.362;8.478;2023-04-28T06:48:17;5.13;;;4.63;;
8526;SDS011;4301;48.362;8.478;2023-04-28T06:50:46;5.00;;;4.50;;
8526;SDS011;4301;48.362;8.478;2023-04-28T06:53:13;4.90;;;4.40;;
8526;SDS011;4301;48.362;8.478;2023-04-28T06:55:40;5.10;;;4.60;;
8526;SDS011;4301;48.362;8.478;2023-04-28T06:58:07;7.23;;;5.13;;
8526;SDS011;4301;48.362;8.478;2023-04-28T07:00:35;5.43;;;4.93;;
8526;SDS011;4301;48.362;8.478;2023-04-28T07:03:02;5.07;;;4.50;;
8526;SDS011;4301;48.362;8.478;2023-04-28T07:05:29;4.67;;;4.30;;
8526;SDS011;4301;48.362;8.478;2023-04-28T07:07:59;4.27;;;3.97;;
8526;SDS011;4301;48.362;8.478;2023-04-28T07:10:25;5.10;;;4.57;;
8526;SDS011;4301;48.362;8.478;2023-04-28T07:12:52;4.97;;;4.47;;
8526;SDS011;4301;48.362;8.478;2023-04-28T07:15:19;5.87;;;4.87;;
8526;SDS011;4301;48.362;8.478;2023-04-28T07:17:48;5.20;;;4.60;;
8526;SDS011;4301;48.362;8.478;2023-04-28T07:20:15;4.50;;;4.10;;
8526;SDS011;4301;48.362;8.478;2023-04-28T07:22:42;4.17;;;3.70;;
8526;SDS011;4301;48.362;8.478;2023-04-28T07:25:10;6.37;;;3.97;;
8526;SDS011;4301;48.362;8.478;2023-04-28T07:27:37;5.07;;;3.80;;
8526;SDS011;4301;48.362;8.478;2023-04-28T07:30:04;4.23;;;3.80;;
8526;SDS011;4301;48.362;8.478;2023-04-28T07:32:32;4.13;;;3.73;;
8526;SDS011;4301;48.362;8.478;2023-04-28T07:34:59;14.13;;;12.20;;
8526;SDS011;4301;48.362;8.478;2023-04-28T07:37:26;4.87;;;3.63;;
8526;SDS011;4301;48.362;8.478;2023-04-28T07:39:54;7.23;;;6.53;;
8526;SDS011;4301;48.362;8.478;2023-04-28T07:42:23;4.23;;;2.90;;
8526;SDS011;4301;48.362;8.478;2023-04-28T07:44:50;2.83;;;2.70;;
8526;SDS011;4301;48.362;8.478;2023-04-28T07:47:17;2.47;;;2.37;;
8526;SDS011;4301;48.362;8.478;2023-04-28T07:49:44;2.13;;;2.03;;
8526;SDS011;4301;48.362;8.478;2023-04-28T07:52:10;1.87;;;1.87;;
8526;SDS011;4301;48.362;8.478;2023-04-28T07:54:37;2.10;;;2.00;;
8526;SDS011;4301;48.362;8.478;2023-04-28T07:57:04;1.97;;;1.87;;
8526;SDS011;4301;48.362;8.478;2023-04-28T07:59:33;4.43;;;2.13;;
8526;SDS011;4301;48.362;8.478;2023-04-28T08:02:00;2.50;;;2.40;;
8526;SDS011;4301;48.362;8.478;2023-04-28T08:04:27;2.07;;;1.97;;
8526;SDS011;4301;48.362;8.478;2023-04-28T08:06:56;1.90;;;1.80;;
8526;SDS011;4301;48.362;8.478;2023-04-28T08:09:23;1.83;;;1.73;;
8526;SDS011;4301;48.362;8.478;2023-04-28T08:11:50;1.60;;;1.50;;
8526;SDS011;4301;48.362;8.478;2023-04-28T08:14:18;1.10;;;1.10;;
8526;SDS011;4301;48.362;8.478;2023-04-28T08:16:47;4.90;;;1.40;;
8526;SDS011;4301;48.362;8.478;2023-04-28T08:19:14;2.50;;;2.30;;
8526;SDS011;4301;48.362;8.478;2023-04-28T08:21:41;1.83;;;1.77;;
8526;SDS011;4301;48.362;8.478;2023-04-28T08:24:09;1.37;;;1.37;;
8526;SDS011;4301;48.362;8.478;2023-04-28T08:26:36;1.30;;;1.30;;
8526;SDS011;4301;48.362;8.478;2023-04-28T08:29:03;1.20;;;1.20;;
8526;SDS011;4301;48.362;8.478;2023-04-28T08:31:31;1.03;;;1.03;;
8526;SDS011;4301;48.362;8.478;2023-04-28T08:33:59;0.87;;;0.87;;
8526;SDS011;4301;48.362;8.478;2023-04-28T08:36:26;0.80;;;0.80;;
8526;SDS011;4301;48.362;8.478;2023-04-28T08:38:56;0.90;;;0.90;;
8526;SDS011;4301;48.362;8.478;2023-04-28T08:41:24;0.80;;;0.80;;
8526;SDS011;4301;48.362;8.478;2023-04-28T08:43:53;0.70;;;0.70;;
8526;SDS011;4301;48.362;8.478;2023-04-28T08:46:20;0.93;;;0.93;;
8526;SDS011;4301;48.362;8.478;2023-04-28T08:48:49;0.77;;;0.77;;
8526;SDS011;4301;48.362;8.478;2023-04-28T08:51:23;1.00;;;0.77;;
8526;SDS011;4301;48.362;8.478;2023-04-28T08:53:54;1.10;;;0.80;;
8526;SDS011;4301;48.362;8.478;2023-04-28T08:56:23;0.97;;;0.90;;
8526;SDS011;4301;48.362;8.478;2023-04-28T08:58:52;0.90;;;0.90;;
8526;SDS011;4301;48.362;8.478;2023-04-28T09:01:20;0.90;;;0.90;;
8526;SDS011;4301;48.362;8.478;2023-04-28T09:03:47;0.90;;;0.90;;
8526;SDS011;4301;48.362;8.478;2023-04-28T09:06:14;0.70;;;0.70;;
8526;SDS011;4301;48.362;8.478;2023-04-28T09:08:43;1.57;;;1.20;;
8526;SDS011;4301;48.362;8.478;2023-04-28T09:11:10;1.30;;;1.03;;
8526;SDS011;4301;48.362;8.478;2023-04-28T09:13:38;0.87;;;0.87;;
8526;SDS011;4301;48.362;8.478;2023-04-28T09:16:06;1.00;;;1.00;;
8526;SDS011;4301;48.362;8.478;2023-04-28T09:18:33;1.00;;;1.00;;
8526;SDS011;4301;48.362;8.478;2023-04-28T09:21:06;1.10;;;1.10;;
8526;SDS011;4301;48.362;8.478;2023-04-28T09:23:35;0.90;;;0.90;;
8526;SDS011;4301;48.362;8.478;2023-04-28T09:26:14;1.77;;;1.20;;
8526;SDS011;4301;48.362;8.478;2023-04-28T09:28:41;0.90;;;0.90;;
8526;SDS011;4301;48.362;8.478;2023-04-28T09:31:21;2.87;;;2.67;;
8526;SDS011;4301;48.362;8.478;2023-04-28T09:33:55;1.37;;;0.97;;
8526;SDS011;4301;48.362;8.478;2023-04-28T09:36:25;1.00;;;1.00;;
8526;SDS011;4301;48.362;8.478;2023-04-28T09:38:54;1.30;;;1.30;;
8526;SDS011;4301;48.362;8.478;2023-04-28T09:41:33;0.80;;;0.80;;
8526;SDS011;4301;48.362;8.478;2023-04-28T09:44:08;0.87;;;0.80;;
8526;SDS011;4301;48.362;8.478;2023-04-28T09:46:36;1.37;;;0.87;;
8526;SDS011;4301;48.362;8.478;2023-04-28T09:49:04;0.70;;;0.70;;
8526;SDS011;4301;48.362;8.478;2023-04-28T09:51:31;0.70;;;0.70;;
8526;SDS011;4301;48.362;8.478;2023-04-28T09:54:00;0.80;;;0.80;;
8526;SDS011;4301;48.362;8.478;2023-04-28T09:56:27;1.20;;;1.20;;
8526;SDS011;4301;48.362;8.478;2023-04-28T09:58:55;1.70;;;1.63;;
8526;SDS011;4301;48.362;8.478;2023-04-28T10:01:24;1.57;;;1.53;;
8526;SDS011;4301;48.362;8.478;2023-04-28T10:03:52;0.90;;;0.90;;
8526;SDS011;4301;48.362;8.478;2023-04-28T10:06:21;1.17;;;1.10;;
8526;SDS011;4301;48.362;8.478;2023-04-28T10:08:49;0.80;;;0.77;;
8526;SDS011;4301;48.362;8.478;2023-04-28T10:11:18;1.10;;;1.10;;
8526;SDS011;4301;48.362;8.478;2023-04-28T10:13:46;0.90;;;0.90;;
8526;SDS011;4301;48.362;8.478;2023-04-28T10:16:15;1.70;;;1.03;;
8526;SDS011;4301;48.362;8.478;2023-04-28T10:18:42;1.07;;;1.07;;
8526;SDS011;4301;48.362;8.478;2023-04-28T10:21:11;1.00;;;1.00;;
8526;SDS011;4301;48.362;8.478;2023-04-28T10:23:55;0.80;;;0.80;;
8526;SDS011;4301;48.362;8.478;2023-04-28T10:26:35;0.80;;;0.80;;
8526;SDS011;4301;48.362;8.478;2023-04-28T10:29:40;0.60;;;0.60;;
8526;SDS011;4301;48.362;8.478;2023-04-28T10:32:17;0.60;;;0.60;;
8526;SDS011;4301;48.362;8.478;2023-04-28T10:34:50;0.60;;;0.60;;
8526;SDS011;4301;48.362;8.478;2023-04-28T10:37:17;0.70;;;0.70;;
8526;SDS011;4301;48.362;8.478;2023-04-28T10:42:53;0.70;;;0.70;;
8526;SDS011;4301;48.362;8.478;2023-04-28T10:51:31;0.60;;;0.60;;
8526;SDS011;4301;48.362;8.478;2023-04-28T10:54:08;0.70;;;0.70;;
8526;SDS011;4301;48.362;8.478;2023-04-28T10:56:39;0.80;;;0.80;;
8526;SDS011;4301;48.362;8.478;2023-04-28T11:01:54;0.70;;;0.70;;
8526;SDS011;4301;48.362;8.478;2023-04-28T11:04:20;0.87;;;0.87;;
8526;SDS011;4301;48.362;8.478;2023-04-28T11:09:46;0.87;;;0.87;;
8526;SDS011;4301;48.362;8.478;2023-04-28T11:12:14;0.90;;;0.90;;
8526;SDS011;4301;48.362;8.478;2023-04-28T11:14:42;0.67;;;0.67;;
8526;SDS011;4301;48.362;8.478;2023-04-28T11:17:10;1.50;;;0.63;;
8526;SDS011;4301;48.362;8.478;2023-04-28T11:19:41;0.50;;;0.50;;
8526;SDS011;4301;48.362;8.478;2023-04-28T11:22:12;0.57;;;0.57;;
8526;SDS011;4301;48.362;8.478;2023-04-28T11:24:40;0.60;;;0.60;;
8526;SDS011;4301;48.362;8.478;2023-04-28T11:27:22;0.67;;;0.67;;
8526;SDS011;4301;48.362;8.478;2023-04-28T11:29:50;0.63;;;0.53;;
8526;SDS011;4301;48.362;8.478;2023-04-28T11:32:19;0.60;;;0.60;;
8526;SDS011;4301;48.362;8.478;2023-04-28T11:34:52;0.60;;;0.60;;
8526;SDS011;4301;48.362;8.478;2023-04-28T11:37:19;0.60;;;0.60;;
8526;SDS011;4301;48.362;8.478;2023-04-28T11:39:47;0.60;;;0.60;;
8526;SDS011;4301;48.362;8.478;2023-04-28T11:42:14;0.67;;;0.67;;
8526;SDS011;4301;48.362;8.478;2023-04-28T11:44:41;0.70;;;0.70;;
8526;SDS011;4301;48.362;8.478;2023-04-28T11:47:17;0.90;;;0.90;;
8526;SDS011;4301;48.362;8.478;2023-04-28T11:49:54;0.70;;;0.70;;
8526;SDS011;4301;48.362;8.478;2023-04-28T11:52:21;1.30;;;0.70;;
8526;SDS011;4301;48.362;8.478;2023-04-28T11:54:54;0.77;;;0.70;;
8526;SDS011;4301;48.362;8.478;2023-04-28T11:57:22;0.63;;;0.63;;
8526;SDS011;4301;48.362;8.478;2023-04-28T11:59:50;0.80;;;0.80;;
8526;SDS011;4301;48.362;8.478;2023-04-28T12:02:24;0.73;;;0.73;;
8526;SDS011;4301;48.362;8.478;2023-04-28T12:04:53;0.70;;;0.70;;
8526;SDS011;4301;48.362;8.478;2023-04-28T12:07:20;1.60;;;0.90;;
8526;SDS011;4301;48.362;8.478;2023-04-28T12:09:48;0.80;;;0.80;;
8526;SDS011;4301;48.362;8.478;2023-04-28T12:12:30;1.20;;;1.20;;
8526;SDS011;4301;48.362;8.478;2023-04-28T12:14:58;1.00;;;0.97;;
8526;SDS011;4301;48.362;8.478;2023-04-28T12:17:28;1.10;;;1.10;;
8526;SDS011;4301;48.362;8.478;2023-04-28T12:19:57;0.80;;;0.80;;
8526;SDS011;4301;48.362;8.478;2023-04-28T12:22:25;1.23;;;1.13;;
8526;SDS011;4301;48.362;8.478;2023-04-28T12:25:02;0.80;;;0.80;;
8526;SDS011;4301;48.362;8.478;2023-04-28T12:27:30;0.80;;;0.80;;
8526;SDS011;4301;48.362;8.478;2023-04-28T12:29:57;0.90;;;0.90;;
8526;SDS011;4301;48.362;8.478;2023-04-28T12:32:37;1.53;;;0.97;;
8526;SDS011;4301;48.362;8.478;2023-04-28T12:35:05;0.70;;;0.70;;
8526;SDS011;4301;48.362;8.478;2023-04-28T12:37:32;0.83;;;0.83;;
8526;SDS011;4301;48.362;8.478;2023-04-28T12:39:59;1.53;;;1.00;;
8526;SDS011;4301;48.362;8.478;2023-04-28T12:42:28;0.90;;;0.90;;
8526;SDS011;4301;48.362;8.478;2023-04-28T12:44:55;1.03;;;0.93;;
8526;SDS011;4301;48.362;8.478;2023-04-28T12:47:22;0.90;;;0.90;;
8526;SDS011;4301;48.362;8.478;2023-04-28T12:49:51;0.87;;;0.87;;
8526;SDS011;4301;48.362;8.478;2023-04-28T12:52:18;0.97;;;0.90;;
8526;SDS011;4301;48.362;8.478;2023-04-28T12:54:45;1.87;;;1.77;;
8526;SDS011;4301;48.362;8.478;2023-04-28T12:57:12;1.00;;;1.00;;
8526;SDS011;4301;48.362;8.478;2023-04-28T12:59:39;1.00;;;0.80;;
8526;SDS011;4301;48.362;8.478;2023-04-28T13:02:06;1.07;;;0.93;;
8526;SDS011;4301;48.362;8.478;2023-04-28T13:04:33;1.30;;;1.00;;
8526;SDS011;4301;48.362;8.478;2023-04-28T13:07:02;1.10;;;0.97;;
8526;SDS011;4301;48.362;8.478;2023-04-28T13:09:31;1.10;;;1.10;;
8526;SDS011;4301;48.362;8.478;2023-04-28T13:11:58;0.90;;;0.90;;
8526;SDS011;4301;48.362;8.478;2023-04-28T13:14:27;1.33;;;1.23;;
8526;SDS011;4301;48.362;8.478;2023-04-28T13:16:54;2.13;;;2.00;;
8526;SDS011;4301;48.362;8.478;2023-04-28T13:19:21;0.97;;;0.97;;
8526;SDS011;4301;48.362;8.478;2023-04-28T13:21:48;1.00;;;1.00;;
8526;SDS011;4301;48.362;8.478;2023-04-28T13:24:17;1.10;;;1.10;;
8526;SDS011;4301;48.362;8.478;2023-04-28T13:26:44;0.90;;;0.90;;
8526;SDS011;4301;48.362;8.478;2023-04-28T13:29:11;1.00;;;1.00;;
8526;SDS011;4301;48.362;8.478;2023-04-28T13:31:38;1.40;;;0.90;;
8526;SDS011;4301;48.362;8.478;2023-04-28T13:34:06;1.00;;;1.00;;
8526;SDS011;4301;48.362;8.478;2023-04-28T13:36:36;3.10;;;2.90;;
8526;SDS011;4301;48.362;8.478;2023-04-28T13:39:03;1.10;;;1.10;;
8526;SDS011;4301;48.362;8.478;2023-04-28T13:41:31;2.50;;;1.10;;
8526;SDS011;4301;48.362;8.478;2023-04-28T13:43:59;1.10;;;1.10;;
8526;SDS011;4301;48.362;8.478;2023-04-28T13:46:26;1.37;;;1.20;;
8526;SDS011;4301;48.362;8.478;2023-04-28T13:48:53;1.80;;;1.00;;
8526;SDS011;4301;48.362;8.478;2023-04-28T13:51:20;1.23;;;1.10;;
8526;SDS011;4301;48.362;8.478;2023-04-28T13:53:47;1.37;;;1.17;;
8526;SDS011;4301;48.362;8.478;2023-04-28T13:56:14;1.10;;;1.10;;
8526;SDS011;4301;48.362;8.478;2023-04-28T13:58:43;1.10;;;1.10;;
8526;SDS011;4301;48.362;8.478;2023-04-28T14:01:10;2.20;;;2.10;;
8526;SDS011;4301;48.362;8.478;2023-04-28T14:03:37;1.53;;;1.47;;
8526;SDS011;4301;48.362;8.478;2023-04-28T14:06:05;1.17;;;1.10;;
8526;SDS011;4301;48.362;8.478;2023-04-28T14:08:32;1.57;;;1.53;;
8526;SDS011;4301;48.362;8.478;2023-04-28T14:10:59;2.03;;;1.50;;
8526;SDS011;4301;48.362;8.478;2023-04-28T14:13:26;1.27;;;1.27;;
8526;SDS011;4301;48.362;8.478;2023-04-28T14:15:55;1.43;;;1.20;;
8526;SDS011;4301;48.362;8.478;2023-04-28T14:18:22;2.13;;;1.30;;
8526;SDS011;4301;48.362;8.478;2023-04-28T14:20:49;1.10;;;1.10;;
8526;SDS011;4301;48.362;8.478;2023-04-28T14:23:18;1.43;;;1.33;;
8526;SDS011;4301;48.362;8.478;2023-04-28T14:25:45;1.80;;;1.70;;
8526;SDS011;4301;48.362;8.478;2023-04-28T14:28:12;1.40;;;1.30;;
8526;SDS011;4301;48.362;8.478;2023-04-28T14:30:39;1.60;;;1.50;;
8526;SDS011;4301;48.362;8.478;2023-04-28T14:33:07;2.07;;;1.60;;
8526;SDS011;4301;48.362;8.478;2023-04-28T14:35:34;1.87;;;1.37;;
8526;SDS011;4301;48.362;8.478;2023-04-28T14:38:01;1.80;;;1.70;;
8526;SDS011;4301;48.362;8.478;2023-04-28T14:40:28;2.23;;;1.40;;
8526;SDS011;4301;48.362;8.478;2023-04-28T14:42:55;2.03;;;1.47;;
8526;SDS011;4301;48.362;8.478;2023-04-28T14:45:23;1.80;;;1.70;;
8526;SDS011;4301;48.362;8.478;2023-04-28T14:47:50;1.70;;;1.60;;
8526;SDS011;4301;48.362;8.478;2023-04-28T14:50:18;1.90;;;1.80;;
8526;SDS011;4301;48.362;8.478;2023-04-28T14:52:45;1.90;;;1.80;;
8526;SDS011;4301;48.362;8.478;2023-04-28T14:55:12;1.70;;;1.60;;
8526;SDS011;4301;48.362;8.478;2023-04-28T14:57:39;4.00;;;2.13;;
8526;SDS011;4301;48.362;8.478;2023-04-28T15:00:07;5.53;;;2.37;;
8526;SDS011;4301;48.362;8.478;2023-04-28T15:02:34;3.00;;;2.70;;
8526;SDS011;4301;48.362;8.478;2023-04-28T15:05:01;2.67;;;2.40;;
8526;SDS011;4301;48.362;8.478;2023-04-28T15:07:30;2.40;;;2.20;;
8526;SDS011;4301;48.362;8.478;2023-04-28T15:09:57;2.00;;;1.90;;
8526;SDS011;4301;48.362;8.478;2023-04-28T15:12:24;4.13;;;1.80;;
8526;SDS011;4301;48.362;8.478;2023-04-28T15:14:54;2.90;;;1.90;;
8526;SDS011;4301;48.362;8.478;2023-04-28T15:17:21;2.43;;;2.23;;
8526;SDS011;4301;48.362;8.478;2023-04-28T15:19:48;4.33;;;2.10;;
8526;SDS011;4301;48.362;8.478;2023-04-28T15:22:15;2.07;;;1.87;;
8526;SDS011;4301;48.362;8.478;2023-04-28T15:24:43;2.00;;;1.80;;
8526;SDS011;4301;48.362;8.478;2023-04-28T15:27:10;2.43;;;1.80;;
8526;SDS011;4301;48.362;8.478;2023-04-28T15:29:37;2.23;;;2.03;;
8526;SDS011;4301;48.362;8.478;2023-04-28T15:32:04;4.00;;;3.60;;
8526;SDS011;4301;48.362;8.478;2023-04-28T15:34:32;2.43;;;2.23;;